Time;durP1;ratioP1;P1;durP2;ratioP2;P2;SDS_P1;SDS_P2;PMS_P1;PMS_P2;Temp;Humidity;BMP_temperature;BMP_pressure;BME280_temperature;BME280_humidity;BME280_pressure;Samples;Min_cycle;Max_cycle;Signal;HPM_P1;HPM_P2
2023/07/22 00:00:48;;;;;;;19.95;18.40;;;19.70;90.80;;;;;;5034279;28;20037;-75
2023/07/22 00:03:14;;;;;;;20.83;19.13;;;19.70;90.80;;;;;;5034894;28;20386;-75
2023/07/22 00:05:40;;;;;;;20.15;18.65;;;19.70;90.90;;;;;;5033456;28;20021;-76
2023/07/22 00:08:06;;;;;;;20.92;19.63;;;19.70;91.00;;;;;;5034486;28;20516;-76
2023/07/22 00:10:32;;;;;;;20.20;18.90;;;19.70;91.00;;;;;;5034535;28;20033;-76
2023/07/22 00:12:58;;;;;;;22.95;21.05;;;19.70;91.10;;;;;;5034813;28;20381;-75
2023/07/22 00:15:25;;;;;;;21.50;20.00;;;19.70;91.50;;;;;;5032835;28;20029;-75
2023/07/22 00:17:51;;;;;;;23.35;21.65;;;19.40;92.20;;;;;;5034609;28;20033;-76
2023/07/22 00:20:17;;;;;;;22.70;21.17;;;19.30;92.50;;;;;;5034830;28;20041;-76
2023/07/22 00:22:43;;;;;;;22.70;21.10;;;19.20;93.00;;;;;;5034620;28;20041;-75
2023/07/22 00:25:10;;;;;;;23.67;22.10;;;19.10;93.50;;;;;;5034260;28;20477;-76
2023/07/22 00:27:37;;;;;;;23.70;21.67;;;19.00;93.60;;;;;;5034507;28;20036;-76
2023/07/22 00:30:06;;;;;;;23.80;22.02;;;19.10;93.60;;;;;;5034229;28;20029;-74
2023/07/22 00:32:32;;;;;;;24.25;22.45;;;19.30;93.50;;;;;;5034009;28;20033;-75
2023/07/22 00:34:59;;;;;;;22.73;21.10;;;19.20;94.00;;;;;;5034523;28;20045;-74
2023/07/22 00:37:25;;;;;;;23.00;21.33;;;19.30;93.80;;;;;;5033726;28;20029;-75
2023/07/22 00:39:51;;;;;;;22.08;20.33;;;19.20;94.00;;;;;;5034150;28;20017;-75
2023/07/22 00:42:17;;;;;;;23.05;21.45;;;19.20;94.40;;;;;;5032700;28;20352;-76
2023/07/22 00:44:43;;;;;;;22.60;20.80;;;19.20;94.40;;;;;;5034135;28;20033;-75
2023/07/22 00:47:09;;;;;;;22.88;21.08;;;19.20;94.40;;;;;;5033390;28;20507;-76
2023/07/22 00:49:35;;;;;;;21.60;20.05;;;19.20;94.50;;;;;;5032597;28;20048;-74
2023/07/22 00:52:04;;;;;;;21.45;19.92;;;19.20;94.70;;;;;;5033842;28;20553;-76
2023/07/22 00:54:30;;;;;;;21.50;19.80;;;19.00;95.10;;;;;;5034134;28;20029;-76
2023/07/22 00:56:57;;;;;;;21.30;19.67;;;19.00;95.30;;;;;;5033694;28;20045;-75
2023/07/22 00:59:24;;;;;;;20.45;18.85;;;19.00;95.20;;;;;;5032768;28;20033;-76
2023/07/22 01:01:50;;;;;;;20.30;18.60;;;19.00;95.30;;;;;;5031740;28;20053;-75
2023/07/22 01:04:16;;;;;;;20.40;18.90;;;18.90;95.60;;;;;;5033467;28;20025;-76
2023/07/22 01:06:44;;;;;;;19.63;18.13;;;18.80;95.80;;;;;;5032032;28;20033;-75
2023/07/22 01:09:10;;;;;;;19.67;18.08;;;18.90;96.00;;;;;;5033600;28;20025;-76
2023/07/22 01:11:36;;;;;;;19.35;17.77;;;18.90;96.00;;;;;;5033425;28;20033;-76
2023/07/22 01:14:03;;;;;;;18.95;17.45;;;18.90;96.50;;;;;;5033477;28;20022;-76
2023/07/22 01:16:29;;;;;;;18.25;16.75;;;18.90;96.40;;;;;;5032645;28;20044;-76
2023/07/22 01:18:55;;;;;;;22.48;20.88;;;18.90;96.40;;;;;;5032449;28;20351;-76
2023/07/22 01:21:22;;;;;;;18.77;17.27;;;18.80;96.70;;;;;;5032843;28;20040;-76
2023/07/22 01:23:49;;;;;;;19.25;17.75;;;18.80;97.00;;;;;;5033456;28;20034;-76
2023/07/22 01:26:15;;;;;;;19.50;17.77;;;18.70;97.30;;;;;;5032000;28;20042;-75
2023/07/22 01:28:41;;;;;;;19.80;18.40;;;18.70;97.60;;;;;;5032201;28;20034;-75
2023/07/22 01:31:07;;;;;;;19.83;18.30;;;18.70;97.60;;;;;;5032541;28;20038;-75
2023/07/22 01:33:33;;;;;;;18.60;17.10;;;18.80;97.60;;;;;;5032193;28;20034;-75
2023/07/22 01:36:00;;;;;;;19.30;17.70;;;18.90;97.50;;;;;;5032326;28;20029;-76
2023/07/22 01:38:26;;;;;;;18.90;17.35;;;18.90;97.90;;;;;;5033261;28;20029;-76
2023/07/22 01:40:52;;;;;;;18.58;17.08;;;18.80;98.20;;;;;;5032616;28;20037;-76
2023/07/22 01:43:18;;;;;;;18.48;16.90;;;18.80;98.10;;;;;;5033087;28;20025;-76
2023/07/22 01:45:44;;;;;;;17.90;16.33;;;18.80;98.50;;;;;;5032397;28;20038;-76
2023/07/22 01:48:10;;;;;;;19.65;18.05;;;18.70;98.80;;;;;;5032853;28;20025;-76
2023/07/22 01:50:36;;;;;;;16.33;14.98;;;18.70;99.00;;;;;;5032754;28;20037;-75
2023/07/22 01:53:04;;;;;;;17.40;16.08;;;18.70;99.10;;;;;;5032891;28;20033;-76
2023/07/22 01:55:30;;;;;;;15.52;14.02;;;18.60;99.10;;;;;;5033013;28;20081;-76
2023/07/22 01:57:56;;;;;;;16.13;14.57;;;18.60;99.30;;;;;;5032243;28;20021;-76
2023/07/22 02:00:22;;;;;;;15.88;14.60;;;18.60;99.40;;;;;;5029875;28;20029;-76
2023/07/22 02:02:48;;;;;;;15.20;14.00;;;18.50;99.80;;;;;;5027460;28;20045;-75
2023/07/22 02:05:14;;;;;;;15.18;13.85;;;18.40;99.90;;;;;;5028487;28;20060;-76
2023/07/22 02:07:40;;;;;;;15.85;14.48;;;18.40;99.90;;;;;;5030458;28;20034;-76
2023/07/22 02:10:06;;;;;;;16.80;15.40;;;18.40;99.90;;;;;;5031454;28;20025;-76
2023/07/22 02:12:32;;;;;;;15.95;14.55;;;18.40;99.90;;;;;;5030004;28;20422;-76
2023/07/22 02:14:59;;;;;;;14.38;12.98;;;18.60;99.90;;;;;;5031435;28;20032;-74
2023/07/22 02:17:25;;;;;;;14.00;11.48;;;18.70;99.60;;;;;;5030447;28;20045;-76
2023/07/22 02:19:51;;;;;;;16.48;14.52;;;18.60;99.60;;;;;;5031285;28;20088;-76
2023/07/22 02:22:18;;;;;;;14.70;13.35;;;18.60;99.70;;;;;;5030901;28;20042;-76
2023/07/22 02:24:44;;;;;;;14.05;12.75;;;18.70;99.60;;;;;;5031109;28;20026;-76
2023/07/22 02:27:10;;;;;;;14.68;13.20;;;18.70;99.60;;;;;;5031065;28;20045;-76
2023/07/22 02:29:36;;;;;;;13.75;12.43;;;18.80;99.50;;;;;;5031055;28;20399;-76
2023/07/22 02:32:03;;;;;;;15.38;14.02;;;18.80;99.30;;;;;;5030338;28;20041;-75
2023/07/22 02:34:29;;;;;;;13.20;12.00;;;18.90;99.20;;;;;;5031023;28;20332;-75
2023/07/22 02:36:55;;;;;;;14.23;12.98;;;19.00;99.10;;;;;;5031179;28;20045;-75
2023/07/22 02:39:21;;;;;;;14.95;13.65;;;19.00;99.30;;;;;;5032332;28;20392;-76
2023/07/22 02:41:48;;;;;;;14.85;13.68;;;19.00;99.30;;;;;;5032285;28;20041;-75
2023/07/22 02:44:14;;;;;;;16.15;14.75;;;18.90;99.30;;;;;;5032843;28;20471;-76
2023/07/22 02:46:41;;;;;;;13.95;12.82;;;18.90;99.50;;;;;;5029494;28;20056;-76
2023/07/22 02:49:07;;;;;;;15.32;14.02;;;18.90;99.50;;;;;;5031857;28;20025;-73
2023/07/22 02:51:33;;;;;;;16.95;15.50;;;18.90;99.60;;;;;;5032184;28;20049;-75
2023/07/22 02:53:59;;;;;;;14.23;13.02;;;18.90;99.40;;;;;;5030923;28;20036;-76
2023/07/22 02:56:25;;;;;;;13.70;12.38;;;19.00;99.40;;;;;;5031961;28;20033;-76
2023/07/22 02:58:52;;;;;;;13.35;11.95;;;18.90;99.60;;;;;;5030749;28;20037;-75
2023/07/22 03:01:18;;;;;;;13.23;11.68;;;18.80;99.50;;;;;;5031006;28;20045;-76
2023/07/22 03:03:44;;;;;;;14.02;12.65;;;18.80;99.60;;;;;;5032520;28;20048;-75
2023/07/22 03:06:11;;;;;;;11.77;10.60;;;18.90;99.50;;;;;;5031774;28;20029;-76
2023/07/22 03:08:37;;;;;;;11.95;10.73;;;18.90;99.50;;;;;;5031881;28;20033;-76
2023/07/22 03:11:03;;;;;;;12.80;11.02;;;18.90;99.70;;;;;;5031898;28;20033;-75
2023/07/22 03:13:29;;;;;;;13.25;11.90;;;19.00;99.80;;;;;;5032508;28;20056;-76
2023/07/22 03:15:56;;;;;;;12.50;11.30;;;19.00;99.70;;;;;;5030949;28;20026;-76
2023/07/22 03:18:22;;;;;;;12.68;11.57;;;19.00;99.70;;;;;;5030932;28;20037;-75
2023/07/22 03:20:48;;;;;;;12.40;11.30;;;18.90;99.90;;;;;;5031612;28;20053;-76
2023/07/22 03:23:14;;;;;;;13.00;11.73;;;18.80;99.90;;;;;;5031921;28;20482;-76
2023/07/22 03:25:41;;;;;;;12.10;11.00;;;18.80;99.90;;;;;;5032140;28;20033;-76
2023/07/22 03:28:07;;;;;;;11.95;10.77;;;18.80;99.90;;;;;;5035867;28;20036;-75
2023/07/22 03:30:33;;;;;;;12.13;11.02;;;18.70;99.90;;;;;;5034441;28;20028;-76
2023/07/22 03:33:00;;;;;;;12.60;11.40;;;18.80;99.90;;;;;;5035626;28;20029;-74
2023/07/22 03:35:27;;;;;;;12.27;11.15;;;18.80;99.90;;;;;;5035225;28;20033;-76
2023/07/22 03:37:53;;;;;;;13.02;11.88;;;18.80;99.90;;;;;;5035211;28;20053;-75
2023/07/22 03:40:20;;;;;;;13.50;12.25;;;18.80;99.90;;;;;;5035042;28;20037;-75
2023/07/22 03:42:49;;;;;;;14.15;12.75;;;18.80;99.90;;;;;;5034083;28;20037;-75
2023/07/22 03:45:19;;;;;;;15.38;13.88;;;18.70;99.90;;;;;;5034210;28;20025;-76
2023/07/22 03:47:45;;;;;;;13.60;12.30;;;18.60;99.90;;;;;;5035628;28;20406;-75
2023/07/22 03:50:11;;;;;;;20.75;17.88;;;18.60;99.90;;;;;;5033667;28;20052;-76
2023/07/22 03:52:38;;;;;;;14.77;13.20;;;18.60;99.90;;;;;;5035043;28;20467;-76
2023/07/22 03:55:05;;;;;;;14.07;12.77;;;18.50;99.90;;;;;;5035158;28;20040;-75
2023/07/22 03:57:31;;;;;;;13.02;11.75;;;18.50;99.90;;;;;;5034821;28;20032;-75
2023/07/22 03:59:57;;;;;;;14.00;12.57;;;18.40;99.90;;;;;;5033538;28;20033;-76
2023/07/22 04:02:23;;;;;;;12.57;11.43;;;18.40;99.90;;;;;;5032951;28;20041;-75
2023/07/22 04:04:51;;;;;;;13.27;11.80;;;18.30;99.90;;;;;;5034937;28;20497;-75
2023/07/22 04:07:17;;;;;;;12.60;11.40;;;18.40;99.90;;;;;;5034516;28;20034;-76
2023/07/22 04:09:44;;;;;;;12.77;11.50;;;18.30;99.90;;;;;;5033453;28;20100;-76
2023/07/22 04:12:11;;;;;;;13.52;12.30;;;18.30;99.90;;;;;;5034977;28;20024;-76
2023/07/22 04:14:38;;;;;;;12.63;11.43;;;18.30;99.90;;;;;;5034463;28;20026;-75
2023/07/22 04:17:04;;;;;;;13.90;12.60;;;18.20;99.90;;;;;;5032730;28;20044;-75
2023/07/22 04:19:30;;;;;;;14.13;12.85;;;18.30;99.90;;;;;;5034711;28;20029;-76
2023/07/22 04:21:57;;;;;;;13.77;12.55;;;18.30;99.90;;;;;;5033078;28;20064;-76
2023/07/22 04:24:24;;;;;;;14.02;12.65;;;18.30;99.90;;;;;;5034724;28;20022;-76
2023/07/22 04:26:51;;;;;;;14.77;13.20;;;18.30;99.90;;;;;;5034403;28;20037;-76
2023/07/22 04:29:17;;;;;;;12.63;11.45;;;18.20;99.90;;;;;;5034183;28;20454;-76
2023/07/22 04:31:43;;;;;;;13.32;12.23;;;18.20;99.90;;;;;;5032629;28;20034;-76
2023/07/22 04:34:11;;;;;;;13.77;12.50;;;18.20;99.90;;;;;;5034570;28;20666;-76
2023/07/22 04:36:37;;;;;;;15.35;13.68;;;18.20;99.90;;;;;;5033928;28;20402;-76
2023/07/22 04:39:07;;;;;;;15.05;13.63;;;18.10;99.90;;;;;;5033548;28;20034;-76
2023/07/22 04:41:33;;;;;;;15.93;14.32;;;18.10;99.90;;;;;;5034018;28;20025;-76
2023/07/22 04:43:59;;;;;;;16.13;14.70;;;18.10;99.90;;;;;;5033837;28;20044;-76
2023/07/22 04:46:26;;;;;;;16.20;14.52;;;18.10;99.90;;;;;;5033275;28;20034;-76
2023/07/22 04:48:55;;;;;;;15.38;14.15;;;18.20;99.90;;;;;;5034060;28;20395;-76
2023/07/22 04:51:21;;;;;;;15.90;14.60;;;18.20;99.90;;;;;;5033634;28;20406;-76
2023/07/22 04:53:47;;;;;;;17.55;15.93;;;18.20;99.90;;;;;;5032822;28;20021;-75
2023/07/22 04:56:16;;;;;;;15.13;13.82;;;18.10;99.90;;;;;;5032401;28;20053;-75
2023/07/22 04:58:42;;;;;;;14.18;12.82;;;18.00;99.90;;;;;;5033479;28;20491;-76
2023/07/22 05:01:08;;;;;;;17.70;12.45;;;18.00;99.90;;;;;;5033133;28;20037;-75
2023/07/22 05:03:35;;;;;;;14.02;11.68;;;18.00;99.90;;;;;;5033884;28;20498;-76
2023/07/22 05:06:01;;;;;;;13.95;12.65;;;18.00;99.90;;;;;;5033431;28;20048;-76
2023/07/22 05:08:27;;;;;;;16.30;12.90;;;18.00;99.90;;;;;;5033863;28;20053;-75
2023/07/22 05:10:54;;;;;;;17.63;12.30;;;17.90;99.90;;;;;;5033503;28;20033;-76
2023/07/22 05:13:20;;;;;;;12.90;10.93;;;17.90;99.90;;;;;;5033225;28;20041;-76
2023/07/22 05:15:46;;;;;;;13.38;11.73;;;17.90;99.90;;;;;;5033309;28;20109;-75
2023/07/22 05:18:12;;;;;;;13.80;12.05;;;17.90;99.90;;;;;;5033818;28;20045;-76
2023/07/22 05:20:39;;;;;;;13.88;12.57;;;17.90;99.90;;;;;;5033213;28;20037;-76
2023/07/22 05:23:05;;;;;;;13.60;12.20;;;17.90;99.90;;;;;;5033370;28;20049;-76
2023/07/22 05:25:31;;;;;;;13.60;12.30;;;18.00;99.90;;;;;;5033146;28;20040;-75
2023/07/22 05:27:57;;;;;;;13.60;12.20;;;18.10;99.90;;;;;;5033020;28;20033;-75
2023/07/22 05:30:23;;;;;;;12.65;11.57;;;18.30;99.90;;;;;;5032515;28;20041;-75
2023/07/22 05:32:52;;;;;;;12.75;11.65;;;18.40;99.90;;;;;;5033225;28;20026;-76
2023/07/22 05:35:18;;;;;;;13.00;11.70;;;18.50;99.90;;;;;;5033476;28;20033;-76
2023/07/22 05:37:44;;;;;;;12.18;11.07;;;18.60;99.90;;;;;;5033067;28;20048;-75
2023/07/22 05:40:11;;;;;;;12.68;11.48;;;18.70;99.90;;;;;;5032897;28;20463;-76
2023/07/22 05:42:37;;;;;;;12.82;11.52;;;18.80;99.90;;;;;;5032827;28;20037;-76
2023/07/22 05:45:03;;;;;;;12.75;11.45;;;19.00;99.90;;;;;;5032710;28;20025;-74
2023/07/22 05:47:29;;;;;;;14.50;12.93;;;19.10;99.90;;;;;;5032952;28;20045;-76
2023/07/22 05:49:55;;;;;;;12.23;11.13;;;19.20;99.90;;;;;;5032464;28;20045;-76
2023/07/22 05:52:21;;;;;;;12.27;11.18;;;19.40;99.90;;;;;;5032736;28;20516;-76
2023/07/22 05:54:47;;;;;;;13.65;12.45;;;19.60;99.90;;;;;;5032496;28;20029;-76
2023/07/22 05:57:14;;;;;;;15.38;14.05;;;19.80;99.90;;;;;;5032382;28;20505;-76
2023/07/22 05:59:40;;;;;;;16.23;15.02;;;19.90;99.90;;;;;;5032848;28;20036;-75
2023/07/22 06:02:07;;;;;;;17.38;15.95;;;20.10;99.90;;;;;;5032123;28;20048;-76
2023/07/22 06:04:33;;;;;;;18.25;16.80;;;20.20;99.90;;;;;;5033051;28;20044;-76
2023/07/22 06:07:00;;;;;;;19.17;17.38;;;20.40;99.90;;;;;;5032307;28;20029;-74
2023/07/22 06:09:26;;;;;;;19.48;18.17;;;20.50;99.90;;;;;;5032328;28;20378;-76
2023/07/22 06:11:52;;;;;;;21.88;20.23;;;20.70;99.90;;;;;;5032243;28;20025;-76
2023/07/22 06:14:18;;;;;;;22.30;20.65;;;20.70;99.90;;;;;;5032670;28;20475;-75
2023/07/22 06:16:44;;;;;;;25.50;23.70;;;20.80;99.90;;;;;;5031928;28;20052;-75
2023/07/22 06:19:10;;;;;;;29.58;27.48;;;21.00;99.90;;;;;;5032524;28;20387;-76
2023/07/22 06:21:36;;;;;;;29.40;27.55;;;21.10;99.90;;;;;;5032252;28;20033;-75
2023/07/22 06:24:02;;;;;;;35.88;33.58;;;21.30;99.90;;;;;;5032116;28;20375;-76
2023/07/22 06:26:28;;;;;;;38.28;35.83;;;21.30;99.90;;;;;;5032052;28;20479;-75
2023/07/22 06:28:54;;;;;;;49.08;45.92;;;21.30;99.90;;;;;;5032390;28;20040;-75
2023/07/22 06:31:21;;;;;;;54.78;50.90;;;21.40;99.90;;;;;;5031569;28;20090;-76
2023/07/22 06:33:47;;;;;;;61.10;57.70;;;21.50;99.70;;;;;;5032163;28;20029;-75
2023/07/22 06:36:14;;;;;;;75.07;70.85;;;21.50;99.60;;;;;;5032009;28;20034;-76
2023/07/22 06:38:40;;;;;;;86.45;81.85;;;21.60;99.90;;;;;;5031887;28;20034;-76
2023/07/22 06:41:06;;;;;;;94.30;89.53;;;21.70;99.70;;;;;;5031968;28;20033;-76
2023/07/22 06:43:32;;;;;;;100.85;95.82;;;21.70;99.60;;;;;;5032791;28;20049;-75
2023/07/22 06:45:59;;;;;;;101.93;96.68;;;21.90;99.70;;;;;;5031480;28;20033;-76
2023/07/22 06:48:25;;;;;;;114.68;108.72;;;22.00;99.60;;;;;;5032284;28;20036;-76
2023/07/22 06:50:51;;;;;;;101.53;96.35;;;22.10;99.30;;;;;;5031823;28;20042;-75
2023/07/22 06:53:18;;;;;;;112.55;106.65;;;22.20;99.00;;;;;;5032231;28;20037;-76
2023/07/22 06:55:53;;;;;;;99.25;93.65;;;22.30;98.90;;;;;;5031794;28;20037;-75
2023/07/22 06:58:19;;;;;;;116.30;110.28;;;22.40;98.70;;;;;;5032557;28;20033;-75
2023/07/22 07:00:45;;;;;;;116.38;110.32;;;22.30;98.60;;;;;;5032154;28;20041;-76
2023/07/22 07:03:12;;;;;;;80.85;76.55;;;22.50;98.80;;;;;;5036202;28;20052;-76
2023/07/22 07:05:41;;;;;;;49.22;46.33;;;22.60;98.70;;;;;;5035755;28;20036;-76
2023/07/22 07:08:10;;;;;;;54.15;51.05;;;22.80;98.20;;;;;;5035907;28;20045;-76
2023/07/22 07:10:38;;;;;;;52.08;48.75;;;22.90;98.00;;;;;;5035719;28;20029;-76
2023/07/22 07:13:04;;;;;;;57.08;53.95;;;23.10;97.90;;;;;;5035842;28;20482;-75
2023/07/22 07:15:30;;;;;;;49.33;46.22;;;23.20;97.90;;;;;;5035314;28;20038;-76
2023/07/22 07:17:56;;;;;;;38.75;36.35;;;23.30;97.80;;;;;;5035823;28;20402;-76
2023/07/22 07:20:22;;;;;;;39.10;36.75;;;23.50;97.40;;;;;;5035551;28;20032;-76
2023/07/22 07:22:48;;;;;;;45.83;43.13;;;23.60;97.30;;;;;;5035422;28;20048;-76
2023/07/22 07:25:15;;;;;;;33.25;31.20;;;23.70;97.10;;;;;;5035458;28;20052;-76
2023/07/22 07:27:41;;;;;;;25.40;23.60;;;23.70;96.60;;;;;;5035629;28;20026;-76
2023/07/22 07:30:08;;;;;;;24.75;23.00;;;23.80;96.70;;;;;;5035238;28;20029;-75
2023/07/22 07:32:34;;;;;;;22.65;21.05;;;23.80;96.50;;;;;;5035041;28;20030;-75
2023/07/22 07:35:01;;;;;;;24.80;23.20;;;24.00;96.10;;;;;;5035416;28;20037;-76
2023/07/22 07:37:27;;;;;;;25.35;23.70;;;24.10;95.10;;;;;;5035322;28;20041;-76
2023/07/22 07:39:53;;;;;;;26.05;24.35;;;24.00;95.10;;;;;;5035448;28;20044;-76
2023/07/22 07:42:19;;;;;;;25.20;23.55;;;24.00;94.10;;;;;;5034979;28;20033;-73
2023/07/22 07:44:46;;;;;;;28.45;26.52;;;23.80;93.80;;;;;;5035233;28;20036;-76
2023/07/22 07:47:12;;;;;;;25.02;23.52;;;23.90;95.00;;;;;;5034496;28;20056;-75
2023/07/22 07:49:38;;;;;;;32.80;30.73;;;24.00;95.00;;;;;;5034975;28;20045;-75
2023/07/22 07:52:04;;;;;;;28.45;26.65;;;24.20;95.20;;;;;;5034989;28;20034;-76
2023/07/22 07:54:30;;;;;;;25.77;23.83;;;24.40;95.30;;;;;;5035003;28;20025;-75
2023/07/22 07:56:57;;;;;;;24.02;22.63;;;24.60;94.00;;;;;;5034751;28;20045;-76
2023/07/22 07:59:23;;;;;;;25.95;24.45;;;24.70;93.20;;;;;;5035043;28;20029;-75
2023/07/22 08:01:49;;;;;;;33.20;31.30;;;24.90;93.00;;;;;;5034180;28;20534;-76
2023/07/22 08:04:17;;;;;;;36.75;34.65;;;24.90;91.70;;;;;;5035018;28;20049;-76
2023/07/22 08:06:43;;;;;;;36.55;34.65;;;24.90;91.90;;;;;;5034859;28;20045;-76
2023/07/22 08:09:10;;;;;;;33.28;31.38;;;24.80;90.70;;;;;;5034942;28;20029;-76
2023/07/22 08:11:37;;;;;;;40.95;38.65;;;24.80;91.30;;;;;;5034486;28;20033;-76
2023/07/22 08:14:05;;;;;;;51.35;48.78;;;25.00;89.70;;;;;;5035003;28;20038;-76
2023/07/22 08:16:31;;;;;;;55.25;52.35;;;24.90;88.30;;;;;;5034150;28;20040;-75
2023/07/22 08:18:58;;;;;;;48.75;46.03;;;25.00;88.10;;;;;;5034720;28;20463;-75
2023/07/22 08:21:24;;;;;;;58.53;55.50;;;25.10;89.20;;;;;;5034074;28;20068;-76
2023/07/22 08:23:50;;;;;;;55.67;52.88;;;25.30;85.20;;;;;;5034942;28;20041;-76
2023/07/22 08:26:20;;;;;;;44.35;41.90;;;24.90;85.70;;;;;;5034296;28;20041;-76
2023/07/22 08:28:47;;;;;;;40.92;38.60;;;25.00;88.80;;;;;;5035265;28;20045;-75
2023/07/22 08:31:13;;;;;;;53.05;50.35;;;25.30;90.10;;;;;;5033814;28;20030;-76
2023/07/22 08:33:39;;;;;;;48.45;45.85;;;25.40;87.30;;;;;;5034464;28;20040;-75
2023/07/22 08:36:05;;;;;;;46.15;43.75;;;25.50;88.20;;;;;;5034168;28;20041;-75
2023/07/22 08:38:32;;;;;;;53.22;50.47;;;25.80;88.80;;;;;;5034501;28;20042;-75
2023/07/22 08:40:58;;;;;;;52.10;49.17;;;25.90;87.70;;;;;;5034009;28;20033;-75
2023/07/22 08:43:24;;;;;;;48.00;45.50;;;25.80;87.00;;;;;;5034181;28;20045;-75
2023/07/22 08:45:51;;;;;;;46.65;44.13;;;25.90;87.30;;;;;;5032330;28;20036;-75
2023/07/22 08:48:18;;;;;;;45.13;42.63;;;26.00;88.10;;;;;;5034145;28;20473;-75
2023/07/22 08:51:04;;;;;;;53.75;50.85;;;26.20;88.80;;;;;;5033611;28;20045;-75
2023/07/22 08:53:33;;;;;;;56.90;53.90;;;26.50;88.00;;;;;;5031901;28;20049;-76
2023/07/22 08:55:59;;;;;;;59.47;56.47;;;26.70;87.60;;;;;;5033864;28;20037;-76
2023/07/22 08:58:25;;;;;;;56.78;53.78;;;26.80;86.60;;;;;;5032776;28;20072;-75
2023/07/22 09:00:51;;;;;;;74.80;71.07;;;26.50;86.90;;;;;;5031485;28;20030;-75
2023/07/22 09:03:18;;;;;;;69.45;65.78;;;26.70;84.40;;;;;;5033419;28;20037;-75
2023/07/22 09:05:44;;;;;;;65.85;62.47;;;26.40;82.30;;;;;;5033393;28;20486;-75
2023/07/22 09:08:10;;;;;;;72.75;69.07;;;26.40;84.70;;;;;;5033773;28;20033;-76
2023/07/22 09:10:36;;;;;;;82.95;78.85;;;26.60;84.60;;;;;;5033691;28;20037;-75
2023/07/22 09:13:03;;;;;;;86.97;82.57;;;26.90;83.20;;;;;;5032235;28;20048;-75
2023/07/22 09:15:29;;;;;;;81.95;78.00;;;27.10;82.20;;;;;;5032984;28;20316;-75
2023/07/22 09:17:55;;;;;;;92.55;87.82;;;27.20;80.80;;;;;;5031991;28;20386;-75
2023/07/22 09:20:22;;;;;;;112.95;107.50;;;27.40;79.90;;;;;;5033274;28;20037;-75
2023/07/22 09:22:51;;;;;;;94.70;90.13;;;27.60;79.60;;;;;;5033658;28;20049;-76
2023/07/22 09:25:18;;;;;;;88.28;83.88;;;27.70;79.90;;;;;;5032599;28;20052;-76
2023/07/22 09:28:05;;;;;;;92.55;87.97;;;27.80;76.90;;;;;;5033305;28;20044;-75
2023/07/22 09:30:34;;;;;;;86.57;82.30;;;27.70;76.50;;;;;;5032313;28;20044;-75
2023/07/22 09:33:02;;;;;;;95.28;90.65;;;27.40;75.80;;;;;;5031566;28;20376;-76
2023/07/22 09:35:29;;;;;;;97.20;92.22;;;27.30;78.10;;;;;;5032664;28;20048;-76
2023/07/22 09:37:56;;;;;;;108.38;103.13;;;27.40;77.40;;;;;;5033149;28;20025;-75
2023/07/22 09:40:28;;;;;;;94.18;89.63;;;27.50;77.00;;;;;;5032527;28;20046;-76
2023/07/22 09:42:56;;;;;;;113.80;108.18;;;27.60;76.80;;;;;;5032979;28;20030;-76
2023/07/22 09:45:23;;;;;;;101.93;96.93;;;27.70;76.30;;;;;;5032336;28;20466;-76
2023/07/22 09:47:50;;;;;;;104.13;99.07;;;27.80;76.20;;;;;;5033401;28;20386;-76
2023/07/22 09:50:26;;;;;;;110.93;105.50;;;27.80;75.60;;;;;;5032586;28;20049;-75
2023/07/22 09:52:53;;;;;;;105.25;99.97;;;27.80;75.40;;;;;;5033064;28;20029;-75
2023/07/22 09:55:23;;;;;;;112.90;107.30;;;27.90;74.50;;;;;;5031454;28;20018;-76
2023/07/22 09:57:53;;;;;;;;;;;27.90;74.90;;;;;;5031734;28;20049;-75
2023/07/22 10:00:19;;;;;;;95.40;90.65;;;28.00;74.80;;;;;;5030516;28;20338;-76
2023/07/22 10:02:47;;;;;;;116.35;110.65;;;28.10;74.60;;;;;;5032268;28;20364;-76
2023/07/22 10:05:15;;;;;;;126.82;120.53;;;28.20;75.50;;;;;;5032816;28;20037;-75
2023/07/22 10:07:52;;;;;;;112.13;106.45;;;28.30;75.20;;;;;;5032577;28;20048;-74
2023/07/22 10:10:21;;;;;;;110.97;105.45;;;28.30;74.30;;;;;;5032872;28;20394;-76
2023/07/22 10:12:47;;;;;;;114.18;108.75;;;28.30;74.50;;;;;;5032642;28;20029;-76
2023/07/22 10:15:14;;;;;;;109.63;104.38;;;28.40;75.10;;;;;;5032114;28;20371;-76
2023/07/22 10:17:41;;;;;;;113.45;107.72;;;28.40;73.70;;;;;;5032273;28;20029;-74
2023/07/22 10:20:10;;;;;;;116.40;110.78;;;28.30;72.90;;;;;;5032577;28;20475;-75
2023/07/22 10:22:37;;;;;;;116.20;110.57;;;28.40;73.50;;;;;;5032091;28;20419;-75
2023/07/22 10:25:07;;;;;;;112.93;107.50;;;28.40;73.50;;;;;;5032454;28;20045;-76
2023/07/22 10:27:39;;;;;;;107.50;102.35;;;28.50;72.90;;;;;;5031910;28;20502;-75
2023/07/22 10:30:06;;;;;;;106.78;101.63;;;28.40;72.40;;;;;;5031764;28;20037;-74
2023/07/22 10:32:36;;;;;;;112.90;107.38;;;28.40;72.80;;;;;;5031911;28;20030;-75
2023/07/22 10:35:03;;;;;;;110.13;104.53;;;28.40;72.10;;;;;;5030577;28;20513;-75
2023/07/22 10:37:33;;;;;;;111.72;106.18;;;28.30;72.80;;;;;;5031737;28;20040;-75
2023/07/22 10:40:21;;;;;;;109.72;104.47;;;28.30;73.10;;;;;;5032354;28;20032;-76
2023/07/22 10:43:06;;;;;;;111.15;105.68;;;28.40;73.50;;;;;;5032667;28;20037;-75
2023/07/22 10:45:51;;;;;;;110.43;104.80;;;28.50;72.50;;;;;;5030051;28;20033;-74
2023/07/22 10:48:17;;;;;;;112.20;106.68;;;28.50;73.00;;;;;;5032333;28;20034;-75
2023/07/22 10:50:48;;;;;;;111.22;105.85;;;28.60;73.00;;;;;;5032039;28;20056;-75
2023/07/22 10:53:24;;;;;;;109.70;104.38;;;28.60;72.20;;;;;;5032466;28;20355;-75
2023/07/22 10:56:09;;;;;;;116.55;110.80;;;28.60;72.60;;;;;;5032034;28;20048;-75
2023/07/22 10:58:44;;;;;;;107.88;102.25;;;28.70;72.40;;;;;;5032149;28;20029;-76
2023/07/22 11:01:36;;;;;;;102.15;97.30;;;28.70;73.00;;;;;;5031005;28;20041;-76
2023/07/22 11:04:02;;;;;;;106.10;100.88;;;28.60;73.70;;;;;;5029429;28;20049;-76
2023/07/22 11:06:29;;;;;;;120.90;114.93;;;28.60;72.70;;;;;;5031751;28;20490;-76
2023/07/22 11:08:55;;;;;;;98.43;93.47;;;28.40;73.60;;;;;;5032282;28;20064;-75
2023/07/22 11:11:33;;;;;;;101.68;96.70;;;28.60;73.40;;;;;;5031695;28;20030;-75
2023/07/22 11:14:16;;;;;;;105.53;100.45;;;28.60;74.00;;;;;;5031652;28;20025;-76
2023/07/22 11:16:46;;;;;;;111.45;105.97;;;28.70;74.30;;;;;;5030047;28;20034;-75
2023/07/22 11:19:13;;;;;;;124.32;118.20;;;28.70;74.00;;;;;;5032234;28;20037;-76
2023/07/22 11:21:39;;;;;;;119.53;113.82;;;28.70;72.60;;;;;;5031758;28;20494;-75
2023/07/22 11:24:07;;;;;;;103.35;98.15;;;28.60;73.20;;;;;;5030590;28;20041;-75
2023/07/22 11:26:33;;;;;;;110.45;105.10;;;28.60;74.20;;;;;;5031100;28;20037;-76
2023/07/22 11:29:03;;;;;;;97.22;92.45;;;28.60;73.80;;;;;;5030185;28;20053;-75
2023/07/22 11:31:42;;;;;;;86.07;81.73;;;28.50;74.00;;;;;;5031300;28;20041;-75
2023/07/22 11:34:09;;;;;;;95.88;91.07;;;28.70;74.20;;;;;;5032271;28;20163;-75
2023/07/22 11:36:38;;;;;;;94.32;89.63;;;28.70;75.10;;;;;;5031181;28;20036;-76
2023/07/22 11:39:08;;;;;;;97.55;92.72;;;28.90;74.60;;;;;;5031768;28;20037;-76
2023/07/22 11:41:34;;;;;;;95.47;90.78;;;28.90;74.50;;;;;;5031671;28;20033;-75
2023/07/22 11:44:01;;;;;;;114.22;108.47;;;29.00;74.80;;;;;;5031120;28;20040;-75
2023/07/22 11:46:27;;;;;;;105.40;100.00;;;29.00;73.30;;;;;;5031197;28;20044;-76
2023/07/22 11:48:54;;;;;;;102.90;97.72;;;29.00;74.80;;;;;;5035252;28;20026;-76
2023/07/22 11:51:23;;;;;;;110.70;105.32;;;29.10;74.50;;;;;;5034754;28;20053;-77
2023/07/22 11:53:53;;;;;;;104.38;99.18;;;29.20;73.80;;;;;;5035073;28;20394;-76
2023/07/22 11:56:19;;;;;;;100.43;95.47;;;29.20;74.30;;;;;;5033757;28;20033;-76
2023/07/22 11:58:49;;;;;;;105.43;100.18;;;29.20;74.30;;;;;;5034677;28;20026;-75
2023/07/22 12:01:15;;;;;;;100.93;96.00;;;29.10;74.00;;;;;;5034395;28;20037;-75
2023/07/22 12:03:42;;;;;;;98.68;93.93;;;29.10;73.90;;;;;;5033580;28;20045;-75
2023/07/22 12:06:08;;;;;;;100.40;95.47;;;29.00;74.30;;;;;;5035013;28;20034;-76
2023/07/22 12:08:35;;;;;;;89.90;85.45;;;29.00;74.30;;;;;;5033803;28;20036;-77
2023/07/22 12:11:02;;;;;;;106.75;101.35;;;28.90;74.40;;;;;;5034643;28;20037;-76
2023/07/22 12:13:28;;;;;;;103.22;97.82;;;29.00;73.80;;;;;;5034985;28;20034;-76
2023/07/22 12:16:01;;;;;;;103.03;97.90;;;29.20;73.60;;;;;;5034150;28;20042;-76
2023/07/22 12:18:27;;;;;;;103.55;98.50;;;29.10;72.90;;;;;;5034860;28;20028;-75
2023/07/22 12:20:53;;;;;;;107.28;102.00;;;29.10;74.40;;;;;;5033217;28;20040;-75
2023/07/22 12:23:21;;;;;;;103.72;98.55;;;29.10;72.50;;;;;;5033319;28;20378;-76